Time;durP1;ratioP1;P1;durP2;ratioP2;P2;SDS_P1;SDS_P2;PMS_P1;PMS_P2;Temp;Humidity;BMP_temperature;BMP_pressure;BME280_temperature;BME280_humidity;BME280_pressure;Samples;Min_cycle;Max_cycle;Signal;HPM_P1;HPM_P2
2021/07/15 00:00:55;;;;;;;;;11.50;11.00;;;;;19.50;62.22;101321.22;5032410;28;46352;-67
2021/07/15 00:03:23;;;;;;;;;8.50;8.50;;;;;19.47;62.20;101322.22;5032800;28;45469;-68
2021/07/15 00:05:51;;;;;;;;;9.25;8.25;;;;;19.46;62.27;101324.94;5032980;28;45402;-68
2021/07/15 00:08:19;;;;;;;;;11.00;9.50;;;;;19.44;61.94;101319.69;5033081;28;45442;-69
2021/07/15 00:10:52;;;;;;;;;10.00;10.00;;;;;19.41;62.23;101319.00;5034100;28;45648;-68
2021/07/15 00:13:18;;;;;;;;;11.00;11.00;;;;;19.35;62.53;101313.97;5034594;28;45423;-68
2021/07/15 00:15:47;;;;;;;;;9.00;8.00;;;;;19.29;62.27;101305.38;5030982;28;45535;-68
2021/07/15 00:18:15;;;;;;;;;10.00;10.00;;;;;19.24;62.64;101312.69;5031330;28;45457;-69
2021/07/15 00:20:45;;;;;;;;;12.00;9.25;;;;;19.19;62.90;101303.25;5032664;28;46190;-68
2021/07/15 00:23:11;;;;;;;;;12.25;11.00;;;;;19.14;62.72;101308.75;5016914;28;45604;-68
2021/07/15 00:25:37;;;;;;;;;11.50;10.25;;;;;19.09;63.09;101306.31;5034439;28;45316;-68
2021/07/15 00:28:04;;;;;;;;;13.00;12.25;;;;;19.07;63.28;101309.97;5032388;28;45304;-67
2021/07/15 00:30:30;;;;;;;;;12.00;11.50;;;;;19.03;63.55;101314.56;5032026;28;47535;-67
2021/07/15 00:32:55;;;;;;;;;12.00;11.25;;;;;19.01;63.69;101321.72;5032170;28;45338;-67
2021/07/15 00:35:20;;;;;;;;;10.25;10.25;;;;;18.98;63.63;101327.16;5032544;28;45467;-69
2021/07/15 00:37:46;;;;;;;;;10.00;10.00;;;;;18.97;63.64;101327.22;5033516;28;45503;-67
2021/07/15 00:40:14;;;;;;;;;11.50;11.50;;;;;18.96;64.07;101330.81;5032966;28;45347;-69
2021/07/15 00:42:39;;;;;;;;;12.00;11.00;;;;;18.96;63.96;101331.69;5032729;28;45435;-68
2021/07/15 00:45:07;;;;;;;;;12.25;9.25;;;;;18.94;63.85;101324.72;5032589;28;45382;-68
2021/07/15 00:47:33;;;;;;;;;12.50;12.25;;;;;18.91;63.90;101336.34;5033040;28;45387;-68
2021/07/15 00:49:59;;;;;;;;;12.50;11.00;;;;;18.93;64.38;101337.13;5032283;28;46318;-68
2021/07/15 00:52:25;;;;;;;;;12.00;12.00;;;;;18.94;64.04;101332.69;5034514;28;45538;-68
2021/07/15 00:54:51;;;;;;;;;12.75;12.25;;;;;18.95;64.23;101331.75;5030455;28;45880;-68
2021/07/15 00:57:17;;;;;;;;;12.25;10.75;;;;;18.94;64.45;101328.22;5030948;28;45569;-68
2021/07/15 00:59:43;;;;;;;;;8.75;7.00;;;;;18.93;64.56;101326.53;5032086;28;46246;-68
2021/07/15 01:02:08;;;;;;;;;13.25;12.00;;;;;18.93;64.21;101330.97;5015785;28;45471;-68
2021/07/15 01:04:34;;;;;;;;;13.00;11.25;;;;;18.95;64.42;101337.06;5037882;28;45333;-68
2021/07/15 01:06:59;;;;;;;;;15.75;12.50;;;;;18.95;64.31;101329.97;5035754;28;45406;-69
2021/07/15 01:09:25;;;;;;;;;17.50;16.75;;;;;18.96;64.13;101341.44;5035213;28;46279;-68
2021/07/15 01:12:09;;;;;;;;;16.25;13.75;;;;;18.96;64.02;101331.69;5035612;28;45550;-68
2021/07/15 01:14:45;;;;;;;;;14.00;13.00;;;;;18.97;64.18;101333.38;5035813;28;45358;-68
2021/07/15 01:17:18;;;;;;;;;15.25;15.25;;;;;18.97;64.35;101329.88;5020407;28;45519;-68
2021/07/15 01:20:02;;;;;;;;;18.00;15.50;;;;;18.94;64.46;101333.53;5033642;28;46289;-68
2021/07/15 01:22:41;;;;;;;;;13.00;13.00;;;;;18.93;64.32;101339.78;5036193;28;45379;-68
2021/07/15 01:25:40;;;;;;;;;14.75;14.00;;;;;18.93;64.96;101342.44;5035105;28;45507;-68
2021/07/15 01:28:21;;;;;;;;;14.50;14.50;;;;;18.93;64.66;101341.59;5034903;28;45284;-68
2021/07/15 01:30:58;;;;;;;;;16.75;14.75;;;;;18.92;64.57;101334.53;5035280;28;46221;-68
2021/07/15 01:33:27;;;;;;;;;13.75;13.00;;;;;18.94;64.36;101332.69;5033909;28;45410;-68
2021/07/15 01:36:10;;;;;;;;;20.00;16.75;;;;;18.95;64.46;101335.28;5033854;28;45462;-68
2021/07/15 01:38:40;;;;;;;;;15.00;14.00;;;;;18.94;64.25;101333.53;5035282;28;45526;-68
2021/07/15 01:41:20;;;;;;;;;10.25;8.50;;;;;18.91;64.74;101335.50;5035223;28;46553;-68
2021/07/15 01:43:50;;;;;;;;;13.00;13.00;;;;;18.87;64.77;101321.50;5033840;28;45429;-68
2021/07/15 01:46:16;;;;;;;;;17.25;15.25;;;;;18.86;64.81;101322.44;5036864;28;45344;-68
2021/07/15 01:48:45;;;;;;;;;15.00;14.00;;;;;18.85;64.93;101333.97;5035055;28;45369;-68
2021/07/15 01:51:12;;;;;;;;;15.25;12.25;;;;;18.84;65.27;101332.25;5034565;28;47185;-68
2021/07/15 01:53:38;;;;;;;;;17.75;15.50;;;;;18.80;65.08;101336.81;5034955;28;45335;-68
2021/07/15 01:56:06;;;;;;;;;14.25;13.75;;;;;18.80;65.08;101333.31;5034763;28;45478;-69
2021/07/15 01:58:34;;;;;;;;;15.75;15.75;;;;;18.80;65.01;101331.50;5036959;28;45408;-68
2021/07/15 02:01:02;;;;;;;;;13.75;13.75;;;;;18.80;64.79;101328.00;5034548;28;48085;-68
2021/07/15 02:03:30;;;;;;;;;14.25;13.25;;;;;18.78;65.00;101330.75;5034499;28;45438;-68
2021/07/15 02:05:56;;;;;;;;;15.50;14.00;;;;;18.77;65.37;101321.03;5034348;28;45425;-68
2021/07/15 02:08:22;;;;;;;;;15.25;14.75;;;;;18.75;65.07;101320.22;5035045;28;45458;-68
2021/07/15 02:10:49;;;;;;;;;13.75;13.00;;;;;18.71;65.35;101328.38;5035787;28;46302;-68
2021/07/15 02:13:15;;;;;;;;;15.25;14.75;;;;;18.71;65.22;101336.34;5034516;28;45415;-69
2021/07/15 02:15:41;;;;;;;;;14.00;14.00;;;;;18.68;65.51;101337.34;5033137;28;45488;-69
2021/07/15 02:18:16;;;;;;;;;16.50;16.25;;;;;18.65;65.55;101327.72;5034832;28;45335;-68
2021/07/15 02:20:43;;;;;;;;;16.50;15.50;;;;;18.63;65.44;101334.88;5034244;28;46158;-68
2021/07/15 02:23:09;;;;;;;;;14.00;14.00;;;;;18.63;65.68;101332.22;5019240;28;45489;-68
2021/07/15 02:25:37;;;;;;;;;15.25;14.00;;;;;18.61;66.07;101319.97;5036810;28;45393;-68
2021/07/15 02:28:06;;;;;;;;;17.25;16.50;;;;;18.58;65.75;101325.44;5034682;28;45268;-69
2021/07/15 02:30:32;;;;;;;;;16.50;14.50;;;;;18.55;66.06;101325.56;5034453;28;46113;-68
2021/07/15 02:33:08;;;;;;;;;16.25;13.75;;;;;18.51;65.79;101327.47;5034342;28;45371;-68
2021/07/15 02:35:39;;;;;;;;;15.50;13.00;;;;;18.50;66.21;101315.16;5034262;28;45300;-68
2021/07/15 02:38:08;;;;;;;;;15.00;14.25;;;;;18.50;66.41;101309.00;5034532;28;45288;-68
2021/07/15 02:40:34;;;;;;;;;14.25;14.00;;;;;18.47;66.25;101312.63;5036352;28;47096;-68
2021/07/15 02:42:59;;;;;;;;;11.25;11.25;;;;;18.45;66.19;101306.56;5034099;28;45399;-68
2021/07/15 02:45:25;;;;;;;;;16.50;16.50;;;;;18.43;66.58;101309.25;5034383;28;45798;-68
2021/07/15 02:47:52;;;;;;;;;16.25;15.50;;;;;18.41;66.15;101308.47;5033404;28;45485;-68
2021/07/15 02:50:20;;;;;;;;;19.50;15.00;;;;;18.41;66.56;101303.16;5032259;28;47012;-68
2021/07/15 02:52:56;;;;;;;;;15.50;14.25;;;;;18.42;66.48;101301.38;5022013;28;46096;-68
2021/07/15 02:55:23;;;;;;;;;18.00;17.50;;;;;18.44;66.42;101300.38;5034094;28;45344;-68
2021/07/15 02:57:59;;;;;;;;;15.75;15.75;;;;;18.45;66.48;101299.47;5033766;28;45414;-68
2021/07/15 03:00:26;;;;;;;;;20.50;18.50;;;;;18.46;66.64;101293.22;5033312;28;45455;-68
2021/07/15 03:03:04;;;;;;;;;18.25;15.00;;;;;18.46;66.81;101295.00;5033545;28;45239;-68
2021/07/15 03:05:35;;;;;;;;;18.00;16.50;;;;;18.43;66.56;101297.81;5033773;28;45364;-68
2021/07/15 03:08:04;;;;;;;;;17.75;16.75;;;;;18.40;66.93;101290.84;5033656;28;45350;-67
2021/07/15 03:10:32;;;;;;;;;15.00;14.75;;;;;18.38;66.94;101294.50;5034437;28;46643;-68
2021/07/15 03:12:58;;;;;;;;;14.75;14.50;;;;;18.37;67.00;101287.47;5033375;28;45489;-68
2021/07/15 03:15:26;;;;;;;;;17.25;16.50;;;;;18.35;66.91;101294.63;5033158;28;45471;-68
2021/07/15 03:17:53;;;;;;;;;16.00;14.00;;;;;18.32;66.97;101289.47;5033831;28;45357;-67
2021/07/15 03:20:25;;;;;;;;;20.00;19.00;;;;;18.29;66.99;101301.06;5032866;28;46343;-68
2021/07/15 03:22:56;;;;;;;;;20.25;16.50;;;;;18.24;67.16;101297.75;5034392;28;45504;-67
2021/07/15 03:25:23;;;;;;;;;19.25;18.00;;;;;18.21;67.48;101313.75;5032764;28;45441;-68
2021/07/15 03:27:50;;;;;;;;;15.50;15.50;;;;;18.19;67.32;101308.53;5032890;28;45462;-68
2021/07/15 03:30:17;;;;;;;;;19.00;16.25;;;;;18.19;67.51;101305.03;5031115;28;47362;-67
2021/07/15 03:32:48;;;;;;;;;20.25;17.25;;;;;18.19;67.46;101315.63;5031674;28;45451;-68
2021/07/15 03:35:15;;;;;;;;;18.00;17.00;;;;;18.20;67.78;101314.69;5018281;28;45355;-68
2021/07/15 03:37:42;;;;;;;;;17.75;15.75;;;;;18.21;67.83;101313.75;5035380;28;45412;-68
2021/07/15 03:40:10;;;;;;;;;20.00;16.00;;;;;18.23;67.83;101318.09;5032858;28;47455;-68
2021/07/15 03:42:38;;;;;;;;;19.75;18.00;;;;;18.25;67.76;101318.88;5033023;28;45374;-68
2021/07/15 03:45:03;;;;;;;;;20.75;16.25;;;;;18.29;67.75;101322.25;5033013;28;45508;-68
2021/07/15 03:47:31;;;;;;;;;18.50;18.25;;;;;18.32;67.56;101314.16;5033292;28;45547;-68
2021/07/15 03:49:57;;;;;;;;;15.75;13.75;;;;;18.35;67.42;101311.41;5032966;28;45475;-68
2021/07/15 03:52:24;;;;;;;;;20.25;16.50;;;;;18.38;67.56;101302.44;5034824;28;45336;-68
2021/07/15 03:54:50;;;;;;;;;19.25;16.50;;;;;18.42;67.60;101314.63;5032281;28;45354;-68
2021/07/15 03:57:19;;;;;;;;;14.50;14.50;;;;;18.45;67.22;101311.84;5032574;28;45502;-68
2021/07/15 03:59:50;;;;;;;;;19.50;17.50;;;;;18.47;67.39;101309.97;5032590;28;46626;-68
2021/07/15 04:02:18;;;;;;;;;16.00;15.00;;;;;18.49;67.42;101312.56;5032710;28;45329;-68
2021/07/15 04:04:48;;;;;;;;;17.00;14.00;;;;;18.50;67.08;101312.50;5034397;28;45352;-68
2021/07/15 04:07:19;;;;;;;;;14.75;14.00;;;;;18.53;67.40;101317.66;5033979;28;45465;-68
2021/07/15 04:09:47;;;;;;;;;17.25;13.75;;;;;18.53;67.20;101312.38;5030972;28;46840;-68
2021/07/15 04:12:17;;;;;;;;;19.50;17.75;;;;;18.54;67.01;101319.38;5030487;28;45318;-68
2021/07/15 04:14:57;;;;;;;;;22.25;19.00;;;;;18.54;67.45;101308.78;5032061;28;45546;-68
2021/07/15 04:17:27;;;;;;;;;20.50;19.25;;;;;18.54;67.28;101313.22;5017962;28;45261;-69
2021/07/15 04:19:59;;;;;;;;;18.50;18.50;;;;;18.53;67.01;101317.66;5032425;28;46981;-68
2021/07/15 04:22:26;;;;;;;;;16.50;16.50;;;;;18.53;67.37;101330.06;5032753;28;45418;-67
2021/07/15 04:24:52;;;;;;;;;18.50;14.25;;;;;18.53;67.24;101316.81;5031619;28;45452;-68
2021/07/15 04:27:18;;;;;;;;;16.00;14.50;;;;;18.54;67.21;101329.97;5031681;28;45462;-68
2021/07/15 04:29:46;;;;;;;;;17.75;17.00;;;;;18.56;67.61;101332.59;5031571;28;45946;-68
2021/07/15 04:32:23;;;;;;;;;14.25;14.25;;;;;18.58;67.44;101331.59;5031008;28;47350;-68
2021/07/15 04:34:49;;;;;;;;;13.00;13.00;;;;;18.62;67.23;101333.19;5030453;28;45461;-68
2021/07/15 04:37:16;;;;;;;;;20.75;19.50;;;;;18.64;66.96;101328.66;5034654;28;45441;-68
2021/07/15 04:39:43;;;;;;;;;20.00;17.00;;;;;18.65;66.87;101333.03;5035326;28;46230;-68
2021/07/15 04:42:09;;;;;;;;;20.25;17.00;;;;;18.68;67.18;101332.88;5034835;28;45276;-68
2021/07/15 04:44:36;;;;;;;;;23.00;22.00;;;;;18.71;67.20;101331.03;5035132;28;45470;-68
2021/07/15 04:47:03;;;;;;;;;21.25;18.75;;;;;18.72;66.83;101335.44;5035123;28;45638;-68
2021/07/15 04:49:30;;;;;;;;;17.00;17.00;;;;;18.73;67.05;101339.78;5036466;28;46984;-68
2021/07/15 04:51:56;;;;;;;;;20.25;18.75;;;;;18.76;66.84;101350.25;5038606;28;45457;-68
2021/07/15 04:54:23;;;;;;;;;14.25;14.25;;;;;18.80;67.08;101341.25;5035402;28;45537;-68
2021/07/15 04:56:50;;;;;;;;;17.50;17.50;;;;;18.84;66.76;101345.50;5034883;28;45531;-68
2021/07/15 04:59:16;;;;;;;;;23.75;22.00;;;;;18.87;66.79;101342.72;5034763;28;46397;-68
2021/07/15 05:01:41;;;;;;;;;23.75;22.25;;;;;18.89;66.79;101346.16;5036322;28;45451;-68
2021/07/15 05:04:07;;;;;;;;;26.25;23.00;;;;;18.93;66.88;101344.25;5034363;28;45476;-68
2021/07/15 05:06:33;;;;;;;;;25.25;23.75;;;;;18.96;67.00;101341.44;5034620;28;45365;-68
2021/07/15 05:08:58;;;;;;;;;24.75;23.00;;;;;19.00;66.60;101343.03;5034684;28;45728;-68
2021/07/15 05:11:23;;;;;;;;;23.50;22.50;;;;;19.02;66.50;101344.69;5031869;28;45420;-68
2021/07/15 05:13:50;;;;;;;;;24.25;19.75;;;;;19.06;66.50;101338.28;5028129;28;45972;-68
2021/07/15 05:16:15;;;;;;;;;21.50;19.25;;;;;19.08;66.14;101341.72;5033724;28;45485;-67
2021/07/15 05:18:42;;;;;;;;;15.50;15.50;;;;;19.08;65.94;101341.72;5034801;28;45493;-67
2021/07/15 05:21:07;;;;;;;;;17.75;17.00;;;;;19.09;65.99;101337.28;5034335;28;45311;-68
2021/07/15 05:23:33;;;;;;;;;16.50;15.00;;;;;19.10;66.23;101339.00;5034406;28;45464;-68
2021/07/15 05:25:58;;;;;;;;;18.00;14.75;;;;;19.14;65.89;101339.72;5034918;28;45458;-68
2021/07/15 05:28:24;;;;;;;;;16.25;16.25;;;;;19.17;66.15;101340.44;5035006;28;46910;-68
2021/07/15 05:30:49;;;;;;;;;13.75;13.75;;;;;19.22;65.59;101340.25;5033202;28;45454;-68
2021/07/15 05:33:15;;;;;;;;;19.75;15.25;;;;;19.25;65.98;101342.75;5034369;28;45460;-67
2021/07/15 05:35:42;;;;;;;;;12.00;12.00;;;;;19.28;65.56;101347.91;5034237;28;45535;-67
2021/07/15 05:38:08;;;;;;;;;19.00;19.00;;;;;19.30;65.42;101351.34;5031588;28;46437;-68
2021/07/15 05:40:34;;;;;;;;;21.00;15.50;;;;;19.33;65.01;101350.34;5035336;28;45329;-68
2021/07/15 05:43:00;;;;;;;;;19.75;15.50;;;;;19.36;65.44;101353.72;5033463;28;45463;-67
2021/07/15 05:45:25;;;;;;;;;18.00;17.25;;;;;19.43;65.20;101354.31;5033609;28;45576;-67
2021/07/15 05:47:51;;;;;;;;;18.25;15.25;;;;;19.50;65.08;101353.94;5032952;28;47190;-67
2021/07/15 05:50:16;;;;;;;;;15.25;14.25;;;;;19.57;65.02;101361.59;5034032;28;45440;-67
2021/07/15 05:52:42;;;;;;;;;13.00;12.00;;;;;19.62;64.72;101359.59;5035823;28;45444;-70
2021/07/15 05:55:08;;;;;;;;;17.25;13.50;;;;;19.69;64.40;101358.41;5033414;28;45373;-70
2021/07/15 05:57:33;;;;;;;;;17.75;16.75;;;;;19.77;64.06;101358.88;5032337;28;47487;-70
2021/07/15 06:00:05;;;;;;;;;12.75;12.75;;;;;19.86;64.00;101362.88;5033820;28;45258;-70
2021/07/15 06:02:31;;;;;;;;;14.25;13.75;;;;;19.91;64.00;101356.41;5033880;28;45722;-70
2021/07/15 06:04:56;;;;;;;;;15.50;12.75;;;;;19.95;63.60;101362.44;5034063;28;45403;-70
2021/07/15 06:07:21;;;;;;;;;15.50;15.50;;;;;20.00;63.62;101354.19;5033580;28;45241;-70
2021/07/15 06:09:47;;;;;;;;;17.25;14.00;;;;;20.08;63.71;101354.69;5031912;28;45469;-70
2021/07/15 06:12:12;;;;;;;;;20.75;17.75;;;;;20.15;63.39;101356.13;5033602;28;45322;-70
2021/07/15 06:14:37;;;;;;;;;14.25;12.25;;;;;20.20;62.96;101359.38;5032964;28;45406;-70
2021/07/15 06:17:03;;;;;;;;;14.00;12.00;;;;;20.27;62.75;101355.47;5032901;28;46934;-68
2021/07/15 06:19:29;;;;;;;;;15.75;14.00;;;;;20.40;62.70;101358.38;5035186;28;45404;-66
2021/07/15 06:21:54;;;;;;;;;15.50;13.25;;;;;20.49;62.21;101357.88;5032322;28;45420;-67
2021/07/15 06:24:19;;;;;;;;;17.00;15.75;;;;;20.57;62.12;101358.41;5031355;28;45522;-68
2021/07/15 06:26:47;;;;;;;;;17.75;16.00;;;;;20.65;61.69;101358.00;5031872;28;46493;-68
2021/07/15 06:29:13;;;;;;;;;25.25;21.25;;;;;20.74;61.46;101361.97;5032388;28;45310;-68
2021/07/15 06:31:38;;;;;;;;;17.00;15.00;;;;;20.82;61.27;101364.22;5035041;28;45484;-68
2021/07/15 06:34:04;;;;;;;;;14.00;13.00;;;;;20.87;61.27;101370.16;5031453;28;45708;-68
2021/07/15 06:36:32;;;;;;;;;16.50;14.25;;;;;20.94;61.27;101371.56;5032243;28;46286;-68
2021/07/15 06:38:58;;;;;;;;;17.25;14.50;;;;;20.96;60.67;101375.00;5032158;28;45269;-68
2021/07/15 06:41:23;;;;;;;;;18.25;17.50;;;;;20.97;60.68;101379.38;5032458;28;45522;-68
2021/07/15 06:43:49;;;;;;;;;14.50;13.50;;;;;20.96;60.67;101370.53;5033534;28;45305;-67
2021/07/15 06:46:16;;;;;;;;;23.75;18.00;;;;;20.98;60.75;101381.09;5032442;28;46035;-67
2021/07/15 06:48:41;;;;;;;;;19.00;17.50;;;;;21.03;60.70;101387.03;5031142;28;45347;-67
2021/07/15 06:51:07;;;;;;;;;16.50;16.50;;;;;21.08;60.65;101384.13;5032063;28;45320;-68
2021/07/15 06:53:33;;;;;;;;;15.75;12.75;;;;;21.12;60.37;101381.22;5032431;28;45490;-67
2021/07/15 06:55:59;;;;;;;;;18.75;18.50;;;;;21.13;60.30;101382.91;5032157;28;46216;-68
2021/07/15 06:58:25;;;;;;;;;15.00;15.00;;;;;21.15;60.29;101375.72;5034338;28;45580;-68
2021/07/15 07:00:50;;;;;;;;;14.00;12.50;;;;;21.17;59.89;101375.66;5031766;28;45332;-67
2021/07/15 07:03:15;;;;;;;;;13.75;12.25;;;;;21.18;60.20;101380.00;5032387;28;45502;-67
2021/07/15 07:05:41;;;;;;;;;13.00;13.00;;;;;21.20;59.89;101380.78;5032349;28;45305;-69
2021/07/15 07:08:08;;;;;;;;;20.50;19.50;;;;;21.26;59.79;101383.13;5032054;28;45444;-68
2021/07/15 07:10:33;;;;;;;;;23.75;18.75;;;;;21.32;59.54;101380.13;5033872;28;45404;-68
2021/07/15 07:12:59;;;;;;;;;15.25;15.00;;;;;21.44;59.33;101377.75;5032581;28;45438;-69
2021/07/15 07:15:24;;;;;;;;;13.25;13.25;;;;;21.53;59.28;101374.59;5047317;28;45801;-69
2021/07/15 07:17:51;;;;;;;;;17.00;16.25;;;;;21.65;58.96;101375.69;5032377;28;45377;-67
2021/07/15 07:20:17;;;;;;;;;16.50;13.75;;;;;21.72;58.71;101377.94;5031959;28;45394;-68
2021/07/15 07:22:43;;;;;;;;;18.25;16.50;;;;;21.75;58.39;101375.06;5033826;28;45396;-68
2021/07/15 07:25:11;;;;;;;;;22.25;19.00;;;;;21.82;58.58;101378.25;5030421;28;47376;-68
2021/07/15 07:27:38;;;;;;;;;15.50;15.50;;;;;21.88;58.16;101377.91;5030092;28;45477;-68
2021/07/15 07:30:06;;;;;;;;;15.25;11.50;;;;;21.92;57.50;101375.91;5031649;28;45595;-69
2021/07/15 07:32:32;;;;;;;;;18.00;14.50;;;;;22.00;58.21;101376.31;5031113;28;45549;-68
2021/07/15 07:34:57;;;;;;;;;10.75;10.75;;;;;22.14;57.75;101376.38;5031091;28;47080;-68
2021/07/15 07:37:24;;;;;;;;;11.50;11.50;;;;;22.27;57.08;101371.22;5034102;28;45431;-68
2021/07/15 07:39:50;;;;;;;;;25.50;19.75;;;;;22.42;57.05;101370.31;5031955;28;45328;-68
2021/07/15 07:42:15;;;;;;;;;15.75;14.25;;;;;22.57;56.94;101373.88;5031334;28;45427;-67
2021/07/15 07:44:40;;;;;;;;;16.25;12.75;;;;;22.69;56.72;101373.13;5031854;28;46088;-68
2021/07/15 07:47:06;;;;;;;;;14.75;12.50;;;;;22.81;56.20;101371.53;5031720;28;45356;-68
2021/07/15 07:49:31;;;;;;;;;11.50;11.50;;;;;22.93;55.94;101369.91;5034138;28;45407;-68
2021/07/15 07:51:57;;;;;;;;;12.33;11.33;;;;;23.01;55.88;101380.97;5031687;28;45364;-68
2021/07/15 07:54:22;;;;;;;;;10.33;10.33;;;;;23.14;55.39;101374.88;5030922;28;46128;-68
2021/07/15 07:56:48;;;;;;;;;8.67;8.67;;;;;23.21;54.89;101377.06;5031480;28;45419;-68
2021/07/15 07:59:14;;;;;;;;;9.67;9.67;;;;;23.27;54.71;101378.50;5031557;28;45370;-68
2021/07/15 08:01:39;;;;;;;;;14.25;14.00;;;;;23.40;54.70;101379.41;5033608;28;45501;-69
2021/07/15 08:04:06;;;;;;;;;17.25;14.25;;;;;23.54;54.34;101370.50;5029650;28;46607;-68
2021/07/15 08:06:36;;;;;;;;;8.67;8.67;;;;;23.67;53.94;101362.56;5029992;28;45295;-68
2021/07/15 08:09:07;;;;;;;;;10.67;10.00;;;;;23.80;53.27;101371.50;5030529;28;45419;-68
2021/07/15 08:11:33;;;;;;;;;11.67;9.67;;;;;23.89;53.39;101368.25;5031276;28;45542;-68
2021/07/15 08:13:59;;;;;;;;;10.00;9.00;;;;;24.01;52.55;101374.59;5031088;28;46320;-68
2021/07/15 08:16:24;;;;;;;;;14.00;14.00;;;;;24.14;52.75;101370.13;5031883;28;45749;-67
2021/07/15 08:18:51;;;;;;;;;9.25;9.25;;;;;24.23;52.31;101373.16;5031156;28;45611;-68
2021/07/15 08:21:18;;;;;;;;;11.00;11.00;;;;;24.21;51.38;101361.69;5031048;28;45379;-68
2021/07/15 08:23:44;;;;;;;;;16.67;14.00;;;;;24.16;51.69;101373.53;5030536;28;45443;-68
2021/07/15 08:26:10;;;;;;;;;13.00;11.33;;;;;24.16;51.80;101370.88;5030821;28;45454;-68
2021/07/15 08:28:35;;;;;;;;;12.00;11.00;;;;;24.14;51.79;101362.09;5033715;28;45348;-68
2021/07/15 08:31:00;;;;;;;;;17.00;15.00;;;;;24.19;52.04;101367.13;5030730;28;45480;-68
2021/07/15 08:33:26;;;;;;;;;12.75;11.00;;;;;24.22;51.69;101366.94;5029342;28;46272;-68
2021/07/15 08:35:51;;;;;;;;;10.67;10.67;;;;;24.22;51.74;101360.72;5031195;28;45498;-69
2021/07/15 08:38:16;;;;;;;;;12.75;11.25;;;;;24.25;51.21;101366.72;5031142;28;45294;-68
2021/07/15 08:40:44;;;;;;;;;11.75;10.25;;;;;24.26;51.32;101360.41;5033373;28;45328;-68
2021/07/15 08:43:10;;;;;;;;;11.75;11.75;;;;;24.30;51.37;101366.41;5030848;28;47481;-68
2021/07/15 08:45:36;;;;;;;;;9.50;9.50;;;;;24.38;50.56;101356.03;5029595;28;45498;-68
2021/07/15 08:48:06;;;;;;;;;14.00;10.00;;;;;24.48;50.94;101357.16;5031667;28;45431;-69
2021/07/15 08:50:32;;;;;;;;;12.50;12.25;;;;;24.61;50.66;101361.66;5031151;28;45669;-68
2021/07/15 08:52:58;;;;;;;;;13.50;12.00;;;;;24.73;49.47;101356.31;5030421;28;45962;-68
2021/07/15 08:58:28;;;;;;;;;14.67;11.67;;;;;24.94;48.70;101353.94;5055796;28;45650;-69
2021/07/15 09:00:53;;;;;;;;;9.00;9.00;;;;;24.99;48.60;101354.47;5036570;28;45434;-68
2021/07/15 09:03:19;;;;;;;;;11.75;11.75;;;;;25.08;48.25;101352.97;5051741;28;46015;-68
2021/07/15 09:05:44;;;;;;;;;12.33;9.33;;;;;25.15;48.02;101361.41;5035833;28;46251;-69
2021/07/15 09:08:12;;;;;;;;;8.33;8.00;;;;;25.18;47.75;101363.91;5032468;28;45387;-68
2021/07/15 09:10:38;;;;;;;;;15.00;12.00;;;;;25.19;47.87;101365.59;5054794;28;45434;-68
2021/07/15 09:13:04;;;;;;;;;10.33;8.67;;;;;25.33;47.64;101370.81;5052853;28;46213;-68
2021/07/15 09:15:30;;;;;;;;;17.33;13.33;;;;;25.51;47.48;101368.63;5052569;28;45468;-68
2021/07/15 09:17:55;;;;;;;;;11.00;11.00;;;;;25.67;46.93;101371.06;5053677;28;45521;-69
2021/07/15 09:20:23;;;;;;;;;13.50;9.75;;;;;25.91;46.11;101367.53;5048355;28;45573;-68
2021/07/15 09:23:01;;;;;;;;;10.00;9.00;;;;;26.12;46.25;101370.41;5053125;28;47242;-69
2021/07/15 09:25:38;;;;;;;;;10.67;10.67;;;;;26.34;45.82;101361.56;5056915;28;45432;-68
2021/07/15 09:28:09;;;;;;;;;8.00;8.00;;;;;26.51;45.73;101358.47;5056364;28;45407;-69
2021/07/15 09:30:35;;;;;;;;;7.67;7.67;;;;;26.72;44.66;101374.75;5034550;28;45428;-68
2021/07/15 09:33:04;;;;;;;;;11.33;11.33;;;;;26.83;44.30;101364.00;5033460;28;46159;-68
2021/07/15 09:35:35;;;;;;;;;9.67;9.00;;;;;26.96;44.24;101365.72;5033615;28;45501;-69
2021/07/15 09:38:13;;;;;;;;;7.33;6.33;;;;;27.00;43.73;101373.41;5033701;28;45537;-68
2021/07/15 09:40:55;;;;;;;;;9.67;8.00;;;;;27.07;43.67;101371.09;5031705;28;45285;-68
2021/07/15 09:43:37;;;;;;;;;11.33;10.00;;;;;27.36;43.98;101370.59;5035046;28;47073;-68
2021/07/15 09:46:12;;;;;;;;;10.00;9.00;;;;;27.76;42.87;101373.56;5031934;28;45496;-68
2021/07/15 09:48:37;;;;;;;;;9.33;8.67;;;;;27.99;42.80;101378.91;5033100;28;45475;-69
2021/07/15 09:51:08;;;;;;;;;8.67;8.67;;;;;28.21;41.81;101370.72;5032916;28;45410;-69
2021/07/15 09:53:34;;;;;;;;;7.33;7.33;;;;;28.20;42.34;101374.41;5033142;28;46030;-69
2021/07/15 09:56:03;;;;;;;;;8.33;8.33;;;;;28.21;41.55;101373.41;5033395;28;45378;-69
2021/07/15 09:58:48;;;;;;;;;13.67;11.67;;;;;28.22;41.00;101375.16;5035230;28;45507;-69
2021/07/15 10:01:22;;;;;;;;;8.00;8.00;;;;;28.18;42.00;101381.75;5035284;28;45430;-69
2021/07/15 10:03:50;;;;;;;;;10.00;10.00;;;;;28.20;40.33;101377.09;5031511;28;46531;-69
2021/07/15 10:06:17;;;;;;;;;10.67;9.67;;;;;28.24;40.73;101378.53;5033024;28;45630;-69
2021/07/15 10:08:45;;;;;;;;;7.33;7.33;;;;;28.30;40.37;101378.03;5033763;28;45422;-69
2021/07/15 10:11:16;;;;;;;;;10.67;9.67;;;;;28.28;40.65;101377.28;5017327;28;45362;-69
2021/07/15 10:13:44;;;;;;;;;9.00;9.00;;;;;28.19;40.21;101386.16;5031185;28;46226;-69
2021/07/15 10:16:10;;;;;;;;;7.00;7.00;;;;;28.11;40.38;101375.19;5032168;28;45426;-69
2021/07/15 10:18:45;;;;;;;;;10.33;9.33;;;;;28.03;40.64;101386.63;5032623;28;45502;-67
2021/07/15 10:21:12;;;;;;;;;10.33;8.67;;;;;27.95;40.95;101379.16;5032845;28;45325;-68
2021/07/15 10:23:39;;;;;;;;;8.33;8.00;;;;;27.85;40.70;101383.59;5032476;28;45532;-67
2021/07/15 10:26:07;;;;;;;;;8.33;8.33;;;;;27.82;40.82;101389.22;5032777;28;45328;-68
2021/07/15 10:28:34;;;;;;;;;8.33;8.33;;;;;27.85;40.69;101394.38;5035293;28;45317;-68
2021/07/15 10:31:03;;;;;;;;;9.00;9.00;;;;;27.95;40.65;101389.91;5032206;28;45343;-68
2021/07/15 10:33:29;;;;;;;;;7.00;6.33;;;;;27.95;40.07;101391.75;5032024;28;48707;-68
2021/07/15 10:35:57;;;;;;;;;10.00;10.00;;;;;27.97;40.42;101397.03;5032254;28;45418;-68
2021/07/15 10:38:23;;;;;;;;;14.00;11.00;;;;;28.06;40.01;101390.88;5031090;28;45497;-68
2021/07/15 10:40:50;;;;;;;;;7.33;7.33;;;;;28.15;40.27;101390.06;5033822;28;45464;-69
2021/07/15 10:43:16;;;;;;;;;15.67;12.33;;;;;28.24;40.22;101397.38;5033982;28;46936;-68
2021/07/15 10:45:43;;;;;;;;;9.33;9.33;;;;;28.44;39.70;101384.94;5033090;28;45418;-69
2021/07/15 10:48:09;;;;;;;;;8.00;8.00;;;;;28.73;39.74;101389.66;5032643;28;45470;-69
2021/07/15 10:50:35;;;;;;;;;9.00;8.00;;;;;29.08;39.23;101385.75;5031196;28;45357;-70
2021/07/15 10:53:02;;;;;;;;;8.00;6.00;;;;;29.36;39.03;101394.91;5032213;28;46575;-69
2021/07/15 10:55:27;;;;;;;;;9.00;7.00;;;;;29.43;38.28;101393.38;5035171;28;45469;-68
2021/07/15 10:57:52;;;;;;;;;12.67;8.00;;;;;29.43;38.22;101393.38;5032751;28;45409;-68
2021/07/15 11:00:26;;;;;;;;;3.33;3.33;;;;;29.60;38.26;101398.13;5032729;28;45444;-68
2021/07/15 11:03:15;;;;;;;;;9.33;9.00;;;;;29.80;38.26;101400.88;5032213;28;46332;-69
2021/07/15 11:05:56;;;;;;;;;8.33;8.33;;;;;29.89;38.06;101393.78;5032019;28;45378;-68
2021/07/15 11:08:44;;;;;;;;;10.33;7.00;;;;;29.83;36.84;101390.66;5017870;28;45407;-70
2021/07/15 11:11:11;;;;;;;;;8.00;6.33;;;;;29.84;37.63;101392.38;5017863;28;45430;-69
2021/07/15 11:13:37;;;;;;;;;10.00;9.00;;;;;30.00;37.24;101399.88;5033806;28;46198;-69
2021/07/15 11:16:07;;;;;;;;;8.33;8.00;;;;;30.26;37.00;101386.69;5032287;28;45343;-69
2021/07/15 11:19:00;;;;;;;;;9.00;9.00;;;;;30.59;35.85;101380.97;5030773;28;45397;-68